createdAt,value
2024-01-05T00:01:01.628Z,99.76
2024-01-05T00:02:42.011Z,99.32
2024-01-05T00:04:22.448Z,98.64
2024-01-05T00:06:02.922Z,98.22
2024-01-05T00:07:43.237Z,97.97
2024-01-05T00:09:23.673Z,97.69
2024-01-05T00:11:04.175Z,97.42
2024-01-05T00:12:44.547Z,97.29
2024-01-05T00:14:24.943Z,97.28
2024-01-05T00:16:05.306Z,97.31
2024-01-05T00:17:45.699Z,97.18
2024-01-05T00:19:26.174Z,97.17
2024-01-05T00:21:06.455Z,97.3
2024-01-05T00:22:46.783Z,97.35
2024-01-05T00:24:27.473Z,97.4
2024-01-05T00:26:07.715Z,97.44
2024-01-05T00:27:48.103Z,97.5
2024-01-05T00:29:28.601Z,97.56
2024-01-05T00:31:08.977Z,97.59
2024-01-05T00:32:49.479Z,97.61
2024-01-05T00:34:29.832Z,97.71
2024-01-05T00:36:10.238Z,97.72
2024-01-05T00:37:50.519Z,97.68
2024-01-05T00:39:30.892Z,97.72
2024-01-05T00:41:11.401Z,97.7
2024-01-05T00:42:51.785Z,97.77
2024-01-05T00:44:32.209Z,97.83
2024-01-05T00:46:12.567Z,97.86
2024-01-05T00:47:53.187Z,97.93
2024-01-05T00:49:33.515Z,97.92
2024-01-05T00:51:13.936Z,98.05
2024-01-05T00:52:54.298Z,98.08
2024-01-05T00:54:34.895Z,98.18
2024-01-05T00:56:15.118Z,98.21
2024-01-05T00:57:55.579Z,98.24
2024-01-05T00:59:36.008Z,98.3
2024-01-05T01:01:16.343Z,98.32
2024-01-05T01:02:56.723Z,98.37
2024-01-05T01:04:37.323Z,98.45
2024-01-05T01:06:17.563Z,98.54
2024-01-05T01:07:57.906Z,98.58
2024-01-05T01:09:38.476Z,98.62
2024-01-05T01:11:19.815Z,98.69
2024-01-05T01:12:59.287Z,98.7
2024-01-05T01:14:39.657Z,98.75
2024-01-05T01:16:20.465Z,98.81
2024-01-05T01:18:00.757Z,98.8
2024-01-05T01:19:41.105Z,98.83
2024-01-05T01:21:21.433Z,98.85
2024-01-05T01:23:01.907Z,98.85
2024-01-05T01:24:42.365Z,98.91
2024-01-05T01:26:22.765Z,98.95
2024-01-05T01:28:03.283Z,99
2024-01-05T01:29:43.713Z,98.97
2024-01-05T01:31:24.188Z,99.06
2024-01-05T01:33:04.752Z,99.08
2024-01-05T01:34:45.103Z,99.12
2024-01-05T01:36:25.399Z,99.18
2024-01-05T01:38:05.756Z,99.17
2024-01-05T01:39:46.227Z,99.21
2024-01-05T01:41:26.692Z,99.25
2024-01-05T01:43:07.077Z,99.27
2024-01-05T01:44:47.427Z,99.32
2024-01-05T01:46:27.855Z,99.41
2024-01-05T01:48:08.510Z,99.47
2024-01-05T01:49:49.012Z,99.51
2024-01-05T01:51:29.162Z,99.53
2024-01-05T01:53:09.479Z,99.57
2024-01-05T01:54:49.982Z,99.65
2024-01-05T01:56:30.437Z,99.68
2024-01-05T01:58:10.750Z,99.7
2024-01-05T01:59:51.174Z,99.77
2024-01-05T02:01:31.585Z,99.81
2024-01-05T02:03:12.085Z,99.81
2024-01-05T02:04:52.402Z,99.85
2024-01-05T02:06:32.755Z,99.87
2024-01-05T02:08:13.156Z,99.86
2024-01-05T02:09:53.548Z,99.87
2024-01-05T02:11:33.976Z,99.85
2024-01-05T02:13:14.403Z,99.88
2024-01-05T02:14:54.745Z,99.89
2024-01-05T02:16:35.164Z,100
2024-01-05T02:18:15.724Z,100
2024-01-05T02:19:56.096Z,100
2024-01-05T02:21:36.518Z,100
2024-01-05T02:23:16.846Z,100
2024-01-05T02:24:57.292Z,100
2024-01-05T02:26:37.843Z,100
2024-01-05T02:28:18.237Z,100
2024-01-05T02:29:58.630Z,100
2024-01-05T02:31:39.005Z,100
2024-01-05T02:33:19.556Z,100
2024-01-05T02:34:59.851Z,100
2024-01-05T02:36:40.427Z,100
2024-01-05T02:38:20.679Z,100
2024-01-05T02:40:01.113Z,99.99
2024-01-05T02:41:41.499Z,99.96
2024-01-05T02:43:21.933Z,99.94
2024-01-05T02:45:02.347Z,99.91
2024-01-05T02:46:42.899Z,99.88
2024-01-05T02:48:23.296Z,99.86
2024-01-05T02:50:03.564Z,99.83
2024-01-05T02:51:44.097Z,99.81
2024-01-05T02:53:24.533Z,99.82
2024-01-05T02:55:04.869Z,99.82
2024-01-05T02:56:45.558Z,99.82
2024-01-05T02:58:25.771Z,99.76
2024-01-05T03:00:06.245Z,99.76
2024-01-05T03:01:46.554Z,99.73
2024-01-05T03:03:27.092Z,99.73
2024-01-05T03:05:07.370Z,99.68
2024-01-05T03:06:48.055Z,99.68
2024-01-05T03:08:28.276Z,99.75
2024-01-05T03:10:08.641Z,99.75
2024-01-05T03:11:49.159Z,99.72
2024-01-05T03:13:29.513Z,99.75
2024-01-05T03:15:10.004Z,99.75
2024-01-05T03:16:50.476Z,99.76
2024-01-05T03:18:30.972Z,99.76
2024-01-05T03:20:11.378Z,99.74
2024-01-05T03:21:51.798Z,99.79
2024-01-05T03:23:32.256Z,99.75
2024-01-05T03:25:12.683Z,99.79
2024-01-05T03:26:53.099Z,99.76
2024-01-05T03:28:33.541Z,99.77
2024-01-05T03:30:13.962Z,99.76
2024-01-05T03:31:54.279Z,99.81
2024-01-05T03:33:34.829Z,99.79
2024-01-05T03:35:15.141Z,99.85
2024-01-05T03:36:55.553Z,99.8
2024-01-05T03:38:35.981Z,99.77
2024-01-05T03:40:16.441Z,99.77
2024-01-05T03:41:56.864Z,99.85
2024-01-05T03:43:37.290Z,99.91
2024-01-05T03:45:17.784Z,99.9
2024-01-05T03:46:58.131Z,99.87
2024-01-05T03:48:38.645Z,99.84
2024-01-05T03:50:18.911Z,99.87
2024-01-05T03:51:59.351Z,99.84
2024-01-05T03:53:39.714Z,99.85
2024-01-05T03:55:20.198Z,99.84
2024-01-05T03:57:00.641Z,99.84
2024-01-05T03:58:41.055Z,99.89
2024-01-05T04:00:21.479Z,99.89
2024-01-05T04:02:01.823Z,99.88
2024-01-05T04:03:42.309Z,99.91
2024-01-05T04:05:22.648Z,99.92
2024-01-05T04:07:02.914Z,99.91
2024-01-05T04:08:43.381Z,99.9
2024-01-05T04:10:23.777Z,99.94
2024-01-05T04:12:04.252Z,99.97
2024-01-05T04:13:44.712Z,99.94
2024-01-05T04:15:24.967Z,99.97
2024-01-05T04:17:05.341Z,99.97
2024-01-05T04:18:45.993Z,99.94
2024-01-05T04:20:26.081Z,99.92
2024-01-05T04:22:06.520Z,99.85
2024-01-05T04:23:46.934Z,99.85
2024-01-05T04:25:27.526Z,99.77
2024-01-05T04:27:08.420Z,99.73
2024-01-05T04:28:48.283Z,99.66
2024-01-05T04:30:28.736Z,99.71
2024-01-05T04:32:09.151Z,99.63
2024-01-05T04:33:49.677Z,99.59
2024-01-05T04:35:29.890Z,99.56
2024-01-05T04:37:10.301Z,99.53
2024-01-05T04:38:50.773Z,99.52
2024-01-05T04:40:31.201Z,99.48
2024-01-05T04:42:11.636Z,99.47
2024-01-05T04:43:51.929Z,99.42
2024-01-05T04:45:32.648Z,99.48
2024-01-05T04:47:12.751Z,99.53
2024-01-05T04:48:53.169Z,99.5
2024-01-05T04:50:33.539Z,99.48
2024-01-05T04:52:13.935Z,99.46
2024-01-05T04:53:54.385Z,99.43
2024-01-05T04:55:34.668Z,99.43
2024-01-05T04:57:15.153Z,99.39
2024-01-05T04:58:55.564Z,99.38
2024-01-05T05:00:36.059Z,99.4
2024-01-05T05:02:16.267Z,99.36
2024-01-05T05:03:56.823Z,99.29
2024-01-05T05:05:37.200Z,99.21
2024-01-05T05:07:17.492Z,99.17
2024-01-05T05:08:58.003Z,99.14
2024-01-05T05:10:38.362Z,99.08
2024-01-05T05:12:18.812Z,99.04
2024-01-05T05:13:59.227Z,98.92
2024-01-05T05:15:40.032Z,98.88
2024-01-05T05:17:19.918Z,98.92
2024-01-05T05:19:00.710Z,98.84
2024-01-05T05:20:40.805Z,98.83
2024-01-05T05:22:21.230Z,98.75
2024-01-05T05:24:01.725Z,98.73
2024-01-05T05:25:42.140Z,98.68
2024-01-05T05:27:22.591Z,98.65
2024-01-05T05:29:03.001Z,98.66
2024-01-05T05:30:43.556Z,98.69
2024-01-05T05:32:23.739Z,98.65
2024-01-05T05:34:04.243Z,98.66
2024-01-05T05:35:44.534Z,98.63
2024-01-05T05:37:25.033Z,98.62
2024-01-05T05:39:05.520Z,98.63
2024-01-05T05:40:45.887Z,98.58
2024-01-05T05:42:26.259Z,98.52
2024-01-05T05:44:06.674Z,98.46
2024-01-05T05:45:47.044Z,98.46
2024-01-05T05:47:27.501Z,98.5
2024-01-05T05:49:08.064Z,98.43
2024-01-05T05:50:48.268Z,98.46
2024-01-05T05:52:30.847Z,98.38
2024-01-05T05:54:09.360Z,98.3
2024-01-05T05:55:49.742Z,98.3
2024-01-05T05:57:30.201Z,98.28
2024-01-05T05:59:10.651Z,98.23
2024-01-05T06:00:51.116Z,98.2
2024-01-05T06:02:31.422Z,98.04
2024-01-05T06:04:11.926Z,97.83
2024-01-05T06:05:52.225Z,97.77
2024-01-05T06:07:32.537Z,97.74
2024-01-05T06:09:13.004Z,97.75
2024-01-05T06:10:53.269Z,97.75
2024-01-05T06:12:33.871Z,97.72
2024-01-05T06:14:14.380Z,97.63
2024-01-05T06:15:54.660Z,97.62
2024-01-05T06:17:34.998Z,97.47
2024-01-05T06:19:15.480Z,97.45
2024-01-05T06:20:55.777Z,97.42
2024-01-05T06:22:36.154Z,97.45
2024-01-05T06:24:16.401Z,97.28
2024-01-05T06:25:56.886Z,96.95
2024-01-05T06:27:39.349Z,96.8
2024-01-05T06:29:17.716Z,96.72
2024-01-05T06:30:58.179Z,96.56
2024-01-05T06:32:38.456Z,96.47
2024-01-05T06:34:19.093Z,96.49
2024-01-05T06:35:59.402Z,96.5
2024-01-05T06:37:39.711Z,96.43
2024-01-05T06:39:20.115Z,96.39
2024-01-05T06:41:00.543Z,96.45
2024-01-05T06:42:41.135Z,96.42
2024-01-05T06:44:21.432Z,96.28
2024-01-05T06:46:01.819Z,96.38
2024-01-05T06:47:42.262Z,96.46
2024-01-05T06:49:22.755Z,96.42
2024-01-05T06:51:03.256Z,96.33
2024-01-05T06:52:43.425Z,96.17
2024-01-05T06:54:23.894Z,96.1
2024-01-05T06:56:04.519Z,95.95
2024-01-05T06:57:44.959Z,95.98
2024-01-05T06:59:25.405Z,95.72
2024-01-05T07:01:05.800Z,95.54
2024-01-05T07:02:46.202Z,95.63
2024-01-05T07:04:26.688Z,95.53
2024-01-05T07:06:07.148Z,95.35
2024-01-05T07:07:47.476Z,95.41
2024-01-05T07:09:27.999Z,95.51
2024-01-05T07:11:08.251Z,95.38
2024-01-05T07:12:48.560Z,95.45
2024-01-05T07:14:29.022Z,95.58
2024-01-05T07:16:09.299Z,95.66
2024-01-05T07:17:49.770Z,95.65
2024-01-05T07:19:30.152Z,95.68
2024-01-05T07:21:10.558Z,95.72
2024-01-05T07:22:50.895Z,95.8
2024-01-05T07:24:31.371Z,95.77
2024-01-05T07:26:11.762Z,95.84
2024-01-05T07:27:52.170Z,95.96
2024-01-05T07:29:32.579Z,95.96
2024-01-05T07:31:13.039Z,95.92
2024-01-05T07:32:53.512Z,95.93
2024-01-05T07:34:33.998Z,96.03
2024-01-05T07:36:14.295Z,95.99
2024-01-05T07:37:54.699Z,95.89
2024-01-05T07:39:35.094Z,95.66
2024-01-05T07:41:15.538Z,95.63
2024-01-05T07:42:55.920Z,95.63
2024-01-05T07:44:36.356Z,95.33
2024-01-05T07:46:16.763Z,95.09
2024-01-05T07:47:57.189Z,95.03
2024-01-05T07:49:37.487Z,94.86
2024-01-05T07:51:17.825Z,94.72
2024-01-05T07:52:58.193Z,94.45
2024-01-05T07:54:38.620Z,94.31
2024-01-05T07:56:19.003Z,94.09
2024-01-05T07:57:59.390Z,93.37
2024-01-05T07:59:39.896Z,93.09
2024-01-05T08:01:20.276Z,93.02
2024-01-05T08:03:00.739Z,92.58
2024-01-05T08:04:41.085Z,92.32
2024-01-05T08:06:21.638Z,92.01
2024-01-05T08:08:01.842Z,92.01
2024-01-05T08:09:42.265Z,92.02
2024-01-05T08:11:22.679Z,91.61
2024-01-05T08:13:03.086Z,91.61
2024-01-05T08:14:43.555Z,91.27
2024-01-05T08:16:24.065Z,91.18
2024-01-05T08:18:04.630Z,91.37
2024-01-05T08:19:44.993Z,91.26
2024-01-05T08:21:25.383Z,91.21
2024-01-05T08:23:05.782Z,90.91
2024-01-05T08:24:46.224Z,90.78
2024-01-05T08:26:26.558Z,90.62
2024-01-05T08:28:06.900Z,90.11
2024-01-05T08:29:47.284Z,89.45
2024-01-05T08:31:27.843Z,89.59
2024-01-05T08:33:08.328Z,89.22
2024-01-05T08:34:48.662Z,89.17
2024-01-05T08:36:29.169Z,88.88
2024-01-05T08:38:09.410Z,88.49
2024-01-05T08:39:49.811Z,88.46
2024-01-05T08:41:30.219Z,88.28
2024-01-05T08:43:10.729Z,88.52
2024-01-05T08:44:51.050Z,88.3
2024-01-05T08:46:31.555Z,87.96
2024-01-05T08:48:11.995Z,88.37
2024-01-05T08:49:52.319Z,87.32
2024-01-05T08:51:32.868Z,87.38
2024-01-05T08:53:13.170Z,88.13
2024-01-05T08:54:53.551Z,88.27
2024-01-05T08:56:34.028Z,88.47
2024-01-05T08:58:14.384Z,87.9
2024-01-05T08:59:54.825Z,87.89
2024-01-05T09:01:38.139Z,88.73
2024-01-05T09:03:15.917Z,89.16
2024-01-05T09:04:56.226Z,88.79
2024-01-05T09:06:36.591Z,88.82
2024-01-05T09:08:16.964Z,88.81
2024-01-05T09:09:57.337Z,89.1
2024-01-05T09:11:37.767Z,88.3
2024-01-05T09:13:18.311Z,87.71
2024-01-05T09:14:58.764Z,88.13
2024-01-05T09:16:39.249Z,87.89
2024-01-05T09:18:19.872Z,87.32
2024-01-05T09:20:00.130Z,86.67
2024-01-05T09:21:40.578Z,85.28
2024-01-05T09:23:20.877Z,85.17
2024-01-05T09:25:01.276Z,85.18
2024-01-05T09:26:41.668Z,85.02
2024-01-05T09:28:22.051Z,84.9
2024-01-05T09:30:02.625Z,85.42
2024-01-05T09:31:42.943Z,84.3
2024-01-05T09:33:23.573Z,85.1
2024-01-05T09:35:03.765Z,84.55
2024-01-05T09:36:44.305Z,85.08
2024-01-05T09:38:24.713Z,85.88
2024-01-05T09:40:05.161Z,86.32
2024-01-05T09:41:45.565Z,86.08
2024-01-05T09:43:25.894Z,86.31
2024-01-05T09:45:06.184Z,86.36
2024-01-05T09:46:46.555Z,86.81
2024-01-05T09:48:33.744Z,86.43
2024-01-05T09:50:07.654Z,86.94
2024-01-05T09:51:47.822Z,85.94
2024-01-05T09:53:28.245Z,86.04
2024-01-05T09:55:08.647Z,86.1
2024-01-05T09:56:49.229Z,85.96
2024-01-05T09:58:29.567Z,86.12
2024-01-05T10:00:09.963Z,86.45
2024-01-05T10:01:50.324Z,87.07
2024-01-05T10:03:30.785Z,86.92
2024-01-05T10:05:11.218Z,87.51
2024-01-05T10:06:51.597Z,87.88
2024-01-05T10:08:31.963Z,88.08
2024-01-05T10:10:12.379Z,88.61
2024-01-05T10:11:52.723Z,88.32
2024-01-05T10:13:33.147Z,88.29
2024-01-05T10:15:13.734Z,87.94
2024-01-05T10:16:54.182Z,88.06
2024-01-05T10:18:34.697Z,88.12
2024-01-05T10:20:15.161Z,87.71
2024-01-05T10:21:55.509Z,88.16
2024-01-05T10:23:35.931Z,88.32
2024-01-05T10:25:17.059Z,88.28
2024-01-05T10:26:56.757Z,88.36
2024-01-05T10:28:37.194Z,88.14
2024-01-05T10:30:17.774Z,87.86
2024-01-05T10:31:58.140Z,87.68
2024-01-05T10:33:38.656Z,87.55
2024-01-05T10:35:18.976Z,87.54
2024-01-05T10:36:59.430Z,87.01
2024-01-05T10:38:39.894Z,87.03
2024-01-05T10:40:20.343Z,86.79
2024-01-05T10:42:00.851Z,86.53
2024-01-05T10:43:41.226Z,85.85
2024-01-05T10:45:21.713Z,84.96
2024-01-05T10:47:02.056Z,85.22
2024-01-05T10:48:42.659Z,85.02
2024-01-05T10:50:22.965Z,84.64
2024-01-05T10:52:03.403Z,84.12
2024-01-05T10:53:43.867Z,84.33
2024-01-05T10:55:24.158Z,83.45
2024-01-05T10:57:04.726Z,83.25
2024-01-05T10:58:45.113Z,82.84
2024-01-05T11:00:25.617Z,83.16
2024-01-05T11:02:06.017Z,83.53
2024-01-05T11:03:46.710Z,83.49
2024-01-05T11:05:27.830Z,82.32
2024-01-05T11:07:07.669Z,82.87
2024-01-05T11:08:47.976Z,82.54
2024-01-05T11:10:28.530Z,82.81
2024-01-05T11:12:09.040Z,83.52
2024-01-05T11:13:49.478Z,83.35
2024-01-05T11:15:29.967Z,82.75
2024-01-05T11:17:10.186Z,82.5
2024-01-05T11:18:54.521Z,81.12
2024-01-05T11:20:31.232Z,81.14
2024-01-05T11:22:11.603Z,81.08
2024-01-05T11:23:52.000Z,81.69
2024-01-05T11:25:32.414Z,81.48
2024-01-05T11:27:12.859Z,81.22
2024-01-05T11:28:53.317Z,80.97
2024-01-05T11:30:33.764Z,81.36
2024-01-05T11:32:14.165Z,81.39
2024-01-05T11:33:54.755Z,81.58
2024-01-05T11:35:38.078Z,81.59
2024-01-05T11:37:15.455Z,82.11
2024-01-05T11:38:55.963Z,81.72
2024-01-05T11:40:36.408Z,81.96
2024-01-05T11:42:16.847Z,82.55
2024-01-05T11:43:57.225Z,82.18
2024-01-05T11:45:37.659Z,82.41
2024-01-05T11:47:18.097Z,82.69
2024-01-05T11:48:58.637Z,82.37
2024-01-05T11:50:38.849Z,82.51
2024-01-05T11:52:21.947Z,82.68
2024-01-05T11:53:59.478Z,82.71
2024-01-05T11:55:40.002Z,82.86
2024-01-05T11:57:20.451Z,82.62
2024-01-05T11:59:00.796Z,82.59
2024-01-05T12:00:41.278Z,83
2024-01-05T12:02:21.555Z,83.45
2024-01-05T12:04:02.043Z,83.76
2024-01-05T12:05:42.456Z,83.89
2024-01-05T12:07:22.768Z,83.96
2024-01-05T12:09:03.236Z,84.45
2024-01-05T12:10:43.645Z,84.76
2024-01-05T12:12:24.177Z,84.86
2024-01-05T12:14:04.473Z,85.04
2024-01-05T12:15:52.843Z,85.04
2024-01-05T12:17:25.464Z,85.5
2024-01-05T12:19:06.180Z,85.51
2024-01-05T12:20:46.306Z,85.47
2024-01-05T12:22:26.729Z,85.3
2024-01-05T12:24:07.293Z,85.21
2024-01-05T12:25:47.712Z,85.36
2024-01-05T12:27:28.261Z,84.7
2024-01-05T12:29:08.528Z,84.62
2024-01-05T12:30:49.078Z,84.62
2024-01-05T12:32:29.638Z,84.62
2024-01-05T12:34:09.853Z,84.97
2024-01-05T12:35:50.122Z,84.95
2024-01-05T12:37:30.561Z,85
2024-01-05T12:39:10.944Z,84.54
2024-01-05T12:40:51.266Z,84.72
2024-01-05T12:42:31.781Z,84.8
2024-01-05T12:44:12.658Z,84.85
2024-01-05T12:45:52.611Z,84.88
2024-01-05T12:47:33.170Z,84.81
2024-01-05T12:49:13.661Z,84.78
2024-01-05T12:50:54.078Z,85.07
2024-01-05T12:52:36.334Z,85.27
2024-01-05T12:54:14.881Z,85.34
2024-01-05T12:55:55.179Z,85.37
2024-01-05T12:57:35.579Z,85.42
2024-01-05T12:59:16.007Z,85.63
2024-01-05T13:00:56.588Z,85.52
2024-01-05T13:02:36.838Z,85.42
2024-01-05T13:04:17.328Z,85.87
2024-01-05T13:05:57.632Z,85.93
2024-01-05T13:07:37.995Z,85.74
2024-01-05T13:09:18.382Z,86.23
2024-01-05T13:10:58.784Z,85.93
2024-01-05T13:12:39.246Z,85.91
2024-01-05T13:14:19.658Z,86.2
2024-01-05T13:16:00.098Z,86.61
2024-01-05T13:17:40.625Z,85.85
2024-01-05T13:19:21.339Z,85.86
2024-01-05T13:21:01.296Z,85.56
2024-01-05T13:22:41.748Z,84.56
2024-01-05T13:24:22.148Z,84.75
2024-01-05T13:26:02.747Z,84.52
2024-01-05T13:27:43.192Z,84.88
2024-01-05T13:29:23.497Z,85.1
2024-01-05T13:31:04.221Z,85.62
2024-01-05T13:32:44.406Z,85.63
2024-01-05T13:34:24.987Z,85.1
2024-01-05T13:36:05.264Z,85.22
2024-01-05T13:37:45.607Z,85.05
2024-01-05T13:39:26.019Z,84.75
2024-01-05T13:41:06.448Z,85.1
2024-01-05T13:42:46.848Z,84.59
2024-01-05T13:44:27.393Z,84.04
2024-01-05T13:46:07.840Z,83.22
2024-01-05T13:47:48.404Z,83.35
2024-01-05T13:49:28.696Z,83.59
2024-01-05T13:51:09.080Z,83.4
2024-01-05T13:52:49.517Z,83.41
2024-01-05T13:54:30.008Z,84.22
2024-01-05T13:56:10.445Z,84.52
2024-01-05T13:57:50.810Z,85.83
2024-01-05T13:59:31.191Z,86
2024-01-05T14:01:11.665Z,87.65
2024-01-05T14:02:52.094Z,85.44
2024-01-05T14:04:32.455Z,86.44
2024-01-05T14:06:13.638Z,86.98
2024-01-05T14:07:53.343Z,85.97
2024-01-05T14:09:33.745Z,83.13
2024-01-05T14:11:14.150Z,82.71
2024-01-05T14:12:56.776Z,83.39
2024-01-05T14:14:34.922Z,83.89
2024-01-05T14:16:15.277Z,84.71
2024-01-05T14:17:55.684Z,85.76
2024-01-05T14:19:36.175Z,86.23
2024-01-05T14:21:16.581Z,87.04
2024-01-05T14:22:56.898Z,87.82
2024-01-05T14:24:37.247Z,88.48
2024-01-05T14:26:17.637Z,88.93
2024-01-05T14:27:58.053Z,89.57
2024-01-05T14:29:38.466Z,89.91
2024-01-05T14:31:18.982Z,90.35
2024-01-05T14:32:59.362Z,90.74
2024-01-05T14:34:42.426Z,91.13
2024-01-05T14:36:20.172Z,91.67
2024-01-05T14:38:00.659Z,92.07
2024-01-05T14:39:40.979Z,92.47
2024-01-05T14:41:23.191Z,92.55
2024-01-05T14:43:01.808Z,92.75
2024-01-05T14:44:42.368Z,93.39
2024-01-05T14:46:22.890Z,93.81
2024-01-05T14:48:03.322Z,93.88
2024-01-05T14:49:43.635Z,94.19
2024-01-05T14:51:24.042Z,94.4
2024-01-05T14:53:10.755Z,94.62
2024-01-05T14:54:44.929Z,94.74
2024-01-05T14:56:25.345Z,94.98
2024-01-05T14:58:05.724Z,95.18
2024-01-05T14:59:46.137Z,95.4
2024-01-05T15:01:26.596Z,95.61
2024-01-05T15:03:07.352Z,95.79
2024-01-05T15:04:47.434Z,95.92
2024-01-05T15:06:27.919Z,96.13
2024-01-05T15:08:08.398Z,96.3
2024-01-05T15:09:48.799Z,96.51
2024-01-05T15:11:29.194Z,96.62
2024-01-05T15:13:09.601Z,96.74
2024-01-05T15:14:49.985Z,96.91
2024-01-05T15:16:30.786Z,97
2024-01-05T15:18:10.937Z,97.1
2024-01-05T15:19:51.355Z,97.15
2024-01-05T15:21:31.764Z,97.18
2024-01-05T15:23:12.122Z,97.23
2024-01-05T15:24:52.622Z,97.12
2024-01-05T15:26:32.966Z,96.99
2024-01-05T15:28:13.332Z,96.76
2024-01-05T15:29:53.780Z,96.55
2024-01-05T15:31:34.873Z,96.42
2024-01-05T15:33:14.859Z,96.31
2024-01-05T15:34:55.241Z,96.28
2024-01-05T15:36:35.736Z,96.24
2024-01-05T15:38:16.087Z,96.25
2024-01-05T15:39:56.501Z,96.31
2024-01-05T15:41:36.846Z,96.23
2024-01-05T15:43:17.265Z,96.12
2024-01-05T15:44:57.633Z,96.01
2024-01-05T15:46:38.075Z,96.1
2024-01-05T15:48:18.602Z,96.22
2024-01-05T15:49:59.031Z,96.16
2024-01-05T15:51:39.568Z,96.21
2024-01-05T15:53:19.880Z,96.45
2024-01-05T15:55:00.356Z,96.62
2024-01-05T15:56:40.718Z,96.83
2024-01-05T15:58:21.086Z,96.95
2024-01-05T16:00:01.611Z,97.01
2024-01-05T16:01:42.132Z,97.02
2024-01-05T16:03:22.552Z,97.02
2024-01-05T16:05:02.802Z,97.04
2024-01-05T16:06:43.106Z,96.98
2024-01-05T16:08:23.463Z,96.98
2024-01-05T16:10:03.891Z,96.89
2024-01-05T16:11:44.345Z,96.63
2024-01-05T16:13:24.792Z,96.37
2024-01-05T16:15:05.308Z,95.91
2024-01-05T16:16:45.689Z,95.43
2024-01-05T16:18:26.101Z,94.84
2024-01-05T16:20:06.568Z,94.79
2024-01-05T16:21:47.017Z,94.75
2024-01-05T16:23:27.322Z,93.75
2024-01-05T16:25:07.797Z,93.23
2024-01-05T16:26:48.109Z,93.25
2024-01-05T16:28:28.520Z,92.69
2024-01-05T16:30:09.069Z,92.82
2024-01-05T16:31:49.418Z,92.92
2024-01-05T16:33:29.783Z,93.17
2024-01-05T16:35:10.148Z,93.45
2024-01-05T16:36:50.527Z,93.34
2024-01-05T16:38:30.976Z,93.48
2024-01-05T16:40:11.346Z,93.37
2024-01-05T16:41:51.725Z,93.29
2024-01-05T16:43:32.134Z,93.18
2024-01-05T16:45:12.609Z,93.43
2024-01-05T16:46:53.080Z,93.38
2024-01-05T16:48:33.735Z,93.42
2024-01-05T16:50:13.936Z,93.39
2024-01-05T16:51:54.423Z,93.53
2024-01-05T16:53:34.799Z,93.39
2024-01-05T16:55:15.287Z,93.16
2024-01-05T16:56:55.661Z,93.18
2024-01-05T16:58:36.129Z,92.94
2024-01-05T17:00:16.652Z,92.9
2024-01-05T17:01:56.886Z,92.52
2024-01-05T17:03:37.424Z,92.65
2024-01-05T17:05:17.833Z,92.79
2024-01-05T17:06:58.184Z,92.85
2024-01-05T17:08:38.531Z,92.76
2024-01-05T17:10:18.895Z,92.58
2024-01-05T17:11:59.344Z,92.29
2024-01-05T17:13:39.782Z,91.94
2024-01-05T17:15:20.211Z,91.5
2024-01-05T17:17:00.502Z,91.17
2024-01-05T17:18:41.104Z,91.06
2024-01-05T17:20:25.264Z,90.48
2024-01-05T17:22:01.698Z,88.75
2024-01-05T17:23:42.109Z,88.57
2024-01-05T17:25:22.476Z,88.04
2024-01-05T17:27:02.930Z,88.16
2024-01-05T17:28:43.323Z,88.97
2024-01-05T17:30:23.879Z,88.64
2024-01-05T17:32:04.089Z,88.61
2024-01-05T17:33:44.680Z,88.38
2024-01-05T17:35:24.927Z,88.46
2024-01-05T17:37:05.380Z,89.22
2024-01-05T17:38:45.753Z,89.4
2024-01-05T17:40:26.117Z,89.32
2024-01-05T17:42:06.653Z,89.12
2024-01-05T17:43:46.998Z,89.08
2024-01-05T17:45:27.494Z,89.05
2024-01-05T17:47:07.944Z,88.99
2024-01-05T17:48:48.453Z,89.28
2024-01-05T17:50:28.811Z,89.02
2024-01-05T17:52:09.266Z,88.81
2024-01-05T17:53:49.594Z,88.27
2024-01-05T17:55:30.041Z,87.51
2024-01-05T17:57:10.568Z,86.98
2024-01-05T17:58:50.894Z,85.73
2024-01-05T18:00:31.334Z,85.33
2024-01-05T18:02:11.582Z,84.76
2024-01-05T18:03:51.943Z,84.62
2024-01-05T18:05:32.269Z,85.08
2024-01-05T18:07:12.766Z,84.23
2024-01-05T18:08:53.152Z,82.99
2024-01-05T18:10:33.589Z,82.82
2024-01-05T18:12:14.174Z,82.63
2024-01-05T18:13:54.539Z,82.31
2024-01-05T18:15:34.968Z,81.78
2024-01-05T18:17:15.456Z,83.06
2024-01-05T18:18:55.951Z,82.43
2024-01-05T18:20:36.227Z,82.52
2024-01-05T18:22:16.677Z,82.27
2024-01-05T18:23:57.122Z,82.76
2024-01-05T18:25:37.561Z,82.28
2024-01-05T18:27:17.995Z,81.9
2024-01-05T18:29:01.493Z,82.52
2024-01-05T18:30:38.766Z,83.33
2024-01-05T18:32:19.119Z,81.61
2024-01-05T18:33:59.711Z,81.86
2024-01-05T18:35:40.031Z,81.58
2024-01-05T18:37:20.486Z,81.57
2024-01-05T18:39:00.856Z,81.38
2024-01-05T18:40:41.210Z,81.82
2024-01-05T18:42:21.583Z,81.69
2024-01-05T18:44:01.967Z,81.46
2024-01-05T18:45:42.414Z,81
2024-01-05T18:47:22.813Z,80.14
2024-01-05T18:49:03.352Z,79.99
2024-01-05T18:50:43.569Z,81.03
2024-01-05T18:52:24.001Z,80.8
2024-01-05T18:54:04.443Z,81.39
2024-01-05T18:55:44.802Z,81.41
2024-01-05T18:57:25.163Z,81.13
2024-01-05T18:59:05.486Z,81.14
2024-01-05T19:00:46.015Z,81.55
2024-01-05T19:02:26.383Z,80.97
2024-01-05T19:04:06.980Z,81.57
2024-01-05T19:05:47.112Z,81.98
2024-01-05T19:07:27.586Z,81.02
2024-01-05T19:09:08.033Z,80.46
2024-01-05T19:10:48.427Z,80.09
2024-01-05T19:12:28.881Z,80.05
2024-01-05T19:14:09.330Z,80.63
2024-01-05T19:15:49.768Z,80.96
2024-01-05T19:17:30.265Z,79.93
2024-01-05T19:19:10.660Z,79.95
2024-01-05T19:20:50.901Z,79.88
2024-01-05T19:22:31.341Z,79.72
2024-01-05T19:24:11.746Z,79.93
2024-01-05T19:25:52.184Z,79.16
2024-01-05T19:27:32.655Z,78.76
2024-01-05T19:29:13.002Z,77.94
2024-01-05T19:30:53.513Z,77
2024-01-05T19:32:33.914Z,77.6
2024-01-05T19:34:14.414Z,78.91
2024-01-05T19:35:54.611Z,79.09
2024-01-05T19:37:34.985Z,78.45
2024-01-05T19:39:15.518Z,78.32
2024-01-05T19:40:55.951Z,77.48
2024-01-05T19:42:36.447Z,78.3
2024-01-05T19:44:16.769Z,77.91
2024-01-05T19:45:57.248Z,78
2024-01-05T19:47:37.624Z,76.99
2024-01-05T19:49:18.020Z,77.11
2024-01-05T19:50:58.305Z,77.24
2024-01-05T19:52:38.672Z,75.94
2024-01-05T19:54:19.848Z,76.07
2024-01-05T19:55:59.491Z,75.94
2024-01-05T19:57:39.914Z,76.1
2024-01-05T19:59:20.868Z,75.7
2024-01-05T20:01:00.875Z,75.32
2024-01-05T20:02:41.192Z,75.98
2024-01-05T20:04:21.680Z,75.65
2024-01-05T20:06:02.410Z,75.5
2024-01-05T20:07:42.281Z,75.01
2024-01-05T20:09:22.737Z,74.77
2024-01-05T20:11:03.051Z,75.24
2024-01-05T20:12:43.516Z,75.43
2024-01-05T20:14:23.806Z,76.21
2024-01-05T20:16:04.302Z,75.63
2024-01-05T20:17:44.726Z,75.44
2024-01-05T20:19:25.124Z,75.66
2024-01-05T20:21:05.429Z,75.6
2024-01-05T20:22:45.787Z,76.31
2024-01-05T20:24:26.390Z,76.73
2024-01-05T20:26:06.716Z,75.8
2024-01-05T20:27:47.253Z,76.26
2024-01-05T20:29:27.736Z,76.65
2024-01-05T20:31:08.315Z,77.08
2024-01-05T20:32:48.516Z,77.29
2024-01-05T20:34:28.886Z,77.17
2024-01-05T20:36:09.323Z,77.79
2024-01-05T20:37:49.797Z,78.65
2024-01-05T20:39:30.305Z,79.42
2024-01-05T20:41:10.750Z,79.19
2024-01-05T20:42:51.209Z,79.53
2024-01-05T20:44:31.538Z,80.26
2024-01-05T20:46:12.056Z,80.81
2024-01-05T20:47:52.550Z,81.16
2024-01-05T20:49:32.921Z,81.51
2024-01-05T20:51:13.258Z,80.85
2024-01-05T20:52:53.707Z,81.23
2024-01-05T20:54:34.138Z,81.25
2024-01-05T20:56:14.567Z,81.33
2024-01-05T20:57:54.977Z,81.4
2024-01-05T20:59:35.405Z,81.24
2024-01-05T21:01:15.812Z,80.72
2024-01-05T21:02:56.092Z,79.67
2024-01-05T21:04:36.567Z,80.8
2024-01-05T21:06:16.977Z,80.63
2024-01-05T21:07:57.372Z,80.96
2024-01-05T21:09:37.747Z,80.87
2024-01-05T21:11:18.090Z,80.98
2024-01-05T21:12:58.465Z,81.05
2024-01-05T21:14:38.917Z,81.13
2024-01-05T21:16:19.289Z,81.63
2024-01-05T21:17:59.806Z,82.37
2024-01-05T21:19:40.528Z,81.99
2024-01-05T21:21:20.503Z,82.07
2024-01-05T21:23:00.926Z,82.4
2024-01-05T21:24:41.526Z,82.15
2024-01-05T21:26:21.808Z,81.94
2024-01-05T21:28:02.213Z,82.21
2024-01-05T21:29:42.859Z,81.98
2024-01-05T21:31:23.139Z,81.64
2024-01-05T21:33:03.606Z,81.8
2024-01-05T21:34:44.230Z,81.59
2024-01-05T21:36:24.229Z,81.62
2024-01-05T21:38:04.654Z,81.61
2024-01-05T21:39:45.113Z,81.02